createdAt,value
2022-11-29T00:01:42.042Z,3.30
2022-11-29T00:04:10.511Z,3.30
2022-11-29T00:06:39.275Z,3.30
2022-11-29T00:09:12.638Z,3.30
2022-11-29T00:12:01.556Z,3.30
2022-11-29T00:14:30.457Z,3.30
2022-11-29T00:17:02.058Z,3.30
2022-11-29T00:19:30.883Z,3.30
2022-11-29T00:21:59.451Z,3.30
2022-11-29T00:24:31.577Z,3.20
2022-11-29T00:27:00.355Z,3.20
2022-11-29T00:29:29.759Z,3.20
2022-11-29T00:31:57.950Z,3.20
2022-11-29T00:34:26.126Z,3.20
2022-11-29T00:36:54.589Z,3.20
2022-11-29T00:39:22.716Z,3.20
2022-11-29T00:41:52.300Z,3.20
2022-11-29T00:44:20.871Z,3.20
2022-11-29T00:46:49.775Z,3.20
2022-11-29T00:49:18.301Z,3.20
2022-11-29T00:51:46.434Z,3.20
2022-11-29T00:54:16.208Z,3.20
2022-11-29T00:56:44.377Z,3.20
2022-11-29T00:59:13.882Z,3.20
2022-11-29T01:01:45.759Z,3.20
2022-11-29T01:04:14.374Z,3.10
2022-11-29T01:06:42.541Z,3.10
2022-11-29T01:09:13.321Z,3.20
2022-11-29T01:11:41.385Z,3.20
2022-11-29T01:14:09.599Z,3.20
2022-11-29T01:16:39.503Z,3.20
2022-11-29T01:19:07.938Z,3.30
2022-11-29T01:21:36.202Z,3.20
2022-11-29T01:24:04.528Z,3.20
2022-11-29T01:26:33.728Z,3.30
2022-11-29T01:29:02.007Z,3.20
2022-11-29T01:31:32.280Z,3.20
2022-11-29T01:34:04.262Z,3.20
2022-11-29T01:36:33.159Z,3.30
2022-11-29T01:39:07.027Z,3.30
2022-11-29T01:41:37.614Z,3.30
2022-11-29T01:44:08.115Z,3.20
2022-11-29T01:46:38.967Z,3.20
2022-11-29T01:49:12.448Z,3.20
2022-11-29T01:51:44.320Z,3.20
2022-11-29T01:54:13.511Z,3.20
2022-11-29T01:56:43.969Z,3.20
2022-11-29T01:59:15.896Z,3.20
2022-11-29T02:01:44.291Z,3.20
2022-11-29T02:04:14.799Z,3.20
2022-11-29T02:06:46.182Z,3.30
2022-11-29T02:09:20.044Z,3.30
2022-11-29T02:12:16.173Z,3.30
2022-11-29T02:15:05.396Z,3.20
2022-11-29T02:17:47.280Z,3.20
2022-11-29T02:21:01.450Z,3.20
2022-11-29T02:23:50.320Z,3.20
2022-11-29T02:26:32.672Z,3.30
2022-11-29T02:29:29.654Z,3.20
2022-11-29T02:32:22.141Z,3.30
2022-11-29T02:35:04.372Z,3.30
2022-11-29T02:37:54.558Z,3.20
2022-11-29T02:40:49.150Z,3.20
2022-11-29T02:43:41.056Z,3.20
2022-11-29T02:46:21.658Z,3.20
2022-11-29T02:49:01.759Z,3.20
2022-11-29T02:51:40.999Z,3.20
2022-11-29T02:54:17.323Z,3.20
2022-11-29T02:56:52.991Z,3.20
2022-11-29T02:59:38.328Z,3.20
2022-11-29T03:02:21.940Z,3.20
2022-11-29T03:04:54.320Z,3.20
2022-11-29T03:07:35.064Z,3.20
2022-11-29T03:10:10.098Z,3.20
2022-11-29T03:12:41.931Z,3.20
2022-11-29T03:15:22.441Z,3.20
2022-11-29T03:18:03.606Z,3.20
2022-11-29T03:20:46.266Z,3.20
2022-11-29T03:23:26.530Z,3.20
2022-11-29T03:26:01.782Z,3.20
2022-11-29T03:28:33.529Z,3.20
2022-11-29T03:31:08.416Z,3.20
2022-11-29T03:33:46.742Z,3.20
2022-11-29T03:36:22.688Z,3.20
2022-11-29T03:38:55.806Z,3.20
2022-11-29T03:41:28.607Z,3.20
2022-11-29T03:44:02.033Z,3.20
2022-11-29T03:46:36.103Z,3.20
2022-11-29T03:49:12.350Z,3.20
2022-11-29T03:51:53.272Z,3.20
2022-11-29T03:54:26.502Z,3.20
2022-11-29T03:56:55.337Z,3.20
2022-11-29T03:59:35.013Z,3.20
2022-11-29T04:02:37.160Z,3.20
2022-11-29T04:05:26.623Z,3.20
2022-11-29T04:08:13.687Z,3.20
2022-11-29T04:11:16.823Z,3.30
2022-11-29T04:14:03.959Z,3.20
2022-11-29T04:17:19.248Z,3.20
2022-11-29T04:20:32.854Z,3.20
2022-11-29T04:23:38.755Z,3.30
2022-11-29T04:26:57.939Z,3.20
2022-11-29T04:29:49.498Z,3.20
2022-11-29T04:32:40.613Z,3.20
2022-11-29T04:35:40.738Z,3.20
2022-11-29T04:38:27.172Z,3.20
2022-11-29T04:41:19.777Z,3.20
2022-11-29T04:44:12.437Z,3.20
2022-11-29T04:47:09.351Z,3.20
2022-11-29T04:50:06.155Z,3.30
2022-11-29T04:53:00.044Z,3.30
2022-11-29T04:55:42.108Z,3.20
2022-11-29T04:58:19.939Z,3.20
2022-11-29T05:00:59.150Z,3.20
2022-11-29T05:03:36.885Z,3.30
2022-11-29T05:06:20.112Z,3.20
2022-11-29T05:08:56.880Z,3.30
2022-11-29T05:11:39.065Z,3.30
2022-11-29T05:14:17.448Z,3.20
2022-11-29T05:16:59.461Z,3.20
2022-11-29T05:19:52.736Z,3.20
2022-11-29T05:22:30.775Z,3.20
2022-11-29T05:25:11.768Z,3.20
2022-11-29T05:27:46.301Z,3.20
2022-11-29T05:30:16.887Z,3.30
2022-11-29T05:32:58.841Z,3.30
2022-11-29T05:35:53.760Z,3.20
2022-11-29T05:38:56.397Z,3.30
2022-11-29T05:41:44.053Z,3.20
2022-11-29T05:44:17.861Z,3.20
2022-11-29T05:46:55.113Z,3.20
2022-11-29T05:49:37.212Z,3.20
2022-11-29T05:52:21.719Z,3.20
2022-11-29T05:55:04.608Z,3.20
2022-11-29T05:57:41.237Z,3.20
2022-11-29T06:00:14.535Z,3.20
2022-11-29T06:02:52.515Z,3.20
2022-11-29T06:05:29.844Z,3.20
2022-11-29T06:08:07.298Z,3.10
2022-11-29T06:10:40.145Z,3.20
2022-11-29T06:13:20.004Z,3.20
2022-11-29T06:16:18.060Z,3.20
2022-11-29T06:19:12.319Z,3.20
2022-11-29T06:21:51.708Z,3.20
2022-11-29T06:24:36.292Z,3.10
2022-11-29T06:27:22.878Z,3.10
2022-11-29T06:29:58.158Z,3.20
2022-11-29T06:32:36.853Z,3.10
2022-11-29T06:35:10.538Z,3.20
2022-11-29T06:37:42.882Z,3.10
2022-11-29T06:40:15.796Z,3.10
2022-11-29T06:42:46.477Z,3.10
2022-11-29T06:45:16.049Z,3.10
2022-11-29T06:47:47.504Z,3.10
2022-11-29T06:50:34.651Z,3.10
2022-11-29T06:53:12.060Z,3.10
2022-11-29T06:55:46.592Z,3.20
2022-11-29T06:58:34.417Z,3.10
2022-11-29T07:01:13.497Z,3.20
2022-11-29T07:04:02.082Z,3.20
2022-11-29T07:06:31.051Z,3.10
2022-11-29T07:09:05.334Z,3.20
2022-11-29T07:11:34.237Z,3.20
2022-11-29T07:14:05.538Z,3.20
2022-11-29T07:16:39.795Z,3.20
2022-11-29T07:19:15.944Z,3.10
2022-11-29T07:21:56.476Z,3.10
2022-11-29T07:24:42.973Z,3.20
2022-11-29T07:27:19.805Z,3.20
2022-11-29T07:30:05.534Z,3.30
2022-11-29T07:32:50.032Z,3.30
2022-11-29T07:35:27.652Z,3.30
2022-11-29T07:38:07.626Z,3.20
2022-11-29T07:40:44.475Z,3.30
2022-11-29T07:43:26.800Z,3.30
2022-11-29T07:45:56.066Z,3.30
2022-11-29T07:48:24.582Z,3.30
2022-11-29T07:50:55.362Z,3.30
2022-11-29T07:53:25.245Z,3.30
2022-11-29T07:55:55.201Z,3.40
2022-11-29T07:58:23.618Z,3.40
2022-11-29T08:00:51.817Z,3.40
2022-11-29T08:03:22.647Z,3.30
2022-11-29T08:05:51.161Z,3.40
2022-11-29T08:08:19.339Z,3.40
2022-11-29T08:10:47.545Z,3.40
2022-11-29T08:13:17.737Z,3.40
2022-11-29T08:15:46.729Z,3.50
2022-11-29T08:18:15.300Z,3.50
2022-11-29T08:20:44.025Z,3.50
2022-11-29T08:23:13.895Z,3.40
2022-11-29T08:25:46.017Z,3.50
2022-11-29T08:28:15.408Z,3.50
2022-11-29T08:30:44.888Z,3.50
2022-11-29T08:33:16.475Z,3.60
2022-11-29T08:35:47.557Z,3.60
2022-11-29T08:38:15.699Z,3.60
2022-11-29T08:40:45.873Z,3.70
2022-11-29T08:43:15.370Z,3.70
2022-11-29T08:45:45.626Z,3.70
2022-11-29T08:48:15.659Z,3.80
2022-11-29T08:50:44.278Z,3.90
2022-11-29T08:53:30.233Z,3.80
2022-11-29T08:56:01.330Z,3.90
2022-11-29T08:58:29.672Z,4.00
2022-11-29T09:00:59.328Z,4.10
2022-11-29T09:03:45.135Z,4.20
2022-11-29T09:06:15.450Z,4.00
2022-11-29T09:08:47.024Z,4.10
2022-11-29T09:11:17.767Z,4.30
2022-11-29T09:13:50.732Z,4.30
2022-11-29T09:16:22.768Z,4.40
2022-11-29T09:18:55.727Z,4.40
2022-11-29T09:21:26.340Z,4.50
2022-11-29T09:23:58.795Z,4.40
2022-11-29T09:26:29.188Z,4.30
2022-11-29T09:29:01.006Z,4.40
2022-11-29T09:31:32.798Z,4.40
2022-11-29T09:34:02.349Z,4.60
2022-11-29T09:36:31.586Z,4.60
2022-11-29T09:39:00.261Z,4.60
2022-11-29T09:41:50.193Z,4.50
2022-11-29T09:44:23.063Z,4.50
2022-11-29T09:47:01.498Z,4.60
2022-11-29T09:49:56.569Z,4.60
2022-11-29T09:52:37.796Z,4.70
2022-11-29T09:55:24.199Z,4.60
2022-11-29T09:57:54.579Z,4.60
2022-11-29T10:00:23.059Z,4.70
2022-11-29T10:02:56.916Z,4.60
2022-11-29T10:05:31.094Z,4.60
2022-11-29T10:08:04.156Z,4.70
2022-11-29T10:10:40.782Z,4.80
2022-11-29T10:13:16.986Z,4.70
2022-11-29T10:15:51.444Z,4.70
2022-11-29T10:18:27.037Z,4.80
2022-11-29T10:20:59.493Z,4.70
2022-11-29T10:23:33.026Z,4.70
2022-11-29T10:26:01.710Z,4.70
2022-11-29T10:28:33.457Z,4.70
2022-11-29T10:31:07.087Z,4.80
2022-11-29T10:33:42.353Z,4.90
2022-11-29T10:36:17.795Z,4.90
2022-11-29T10:38:51.341Z,4.80
2022-11-29T10:41:23.813Z,4.80
2022-11-29T10:43:53.805Z,4.80
2022-11-29T10:46:29.918Z,4.70
2022-11-29T10:49:02.632Z,4.80
2022-11-29T10:51:31.872Z,4.80
2022-11-29T10:54:25.275Z,4.70
2022-11-29T10:56:53.438Z,4.70
2022-11-29T10:59:23.793Z,4.70
2022-11-29T11:01:52.772Z,4.70
2022-11-29T11:04:29.547Z,4.70
2022-11-29T11:07:01.691Z,4.70
2022-11-29T11:09:34.559Z,4.60
2022-11-29T11:12:06.066Z,4.80
2022-11-29T11:14:37.416Z,4.70
2022-11-29T11:17:17.697Z,4.60
2022-11-29T11:19:56.149Z,4.70
2022-11-29T11:22:26.603Z,4.60
2022-11-29T11:25:01.099Z,4.70
2022-11-29T11:27:32.335Z,4.70
2022-11-29T11:30:01.155Z,4.80
2022-11-29T11:32:29.827Z,4.80
2022-11-29T11:35:01.068Z,4.80
2022-11-29T11:37:31.863Z,4.80
2022-11-29T11:40:02.037Z,4.80
2022-11-29T11:42:40.278Z,4.80
2022-11-29T11:45:26.631Z,4.80
2022-11-29T11:47:57.462Z,4.80
2022-11-29T11:50:30.475Z,4.80
2022-11-29T11:53:01.228Z,4.80
2022-11-29T11:55:36.674Z,4.90
2022-11-29T11:58:16.078Z,4.90
2022-11-29T12:01:06.577Z,4.90
2022-11-29T12:03:40.745Z,4.80
2022-11-29T12:06:30.497Z,4.90
2022-11-29T12:09:05.380Z,4.80
2022-11-29T12:11:42.702Z,4.90
2022-11-29T12:14:19.784Z,5.00
2022-11-29T12:16:51.497Z,4.90
2022-11-29T12:19:24.548Z,4.90
2022-11-29T12:22:01.092Z,4.80
2022-11-29T12:24:35.279Z,4.80
2022-11-29T12:27:07.168Z,4.90
2022-11-29T12:29:37.302Z,5.00
2022-11-29T12:32:20.013Z,5.00
2022-11-29T12:35:05.654Z,5.00
2022-11-29T12:37:44.199Z,5.00
2022-11-29T12:40:22.842Z,5.00
2022-11-29T12:42:57.713Z,5.00
2022-11-29T12:45:48.237Z,5.00
2022-11-29T12:48:28.356Z,5.00
2022-11-29T12:51:04.882Z,5.00
2022-11-29T12:53:53.510Z,4.90
2022-11-29T12:56:28.273Z,4.80
2022-11-29T12:59:14.128Z,4.90
2022-11-29T13:02:13.962Z,5.00
2022-11-29T13:04:59.587Z,5.20
2022-11-29T13:07:37.478Z,5.00
2022-11-29T13:10:38.889Z,5.00
2022-11-29T13:13:20.037Z,5.00
2022-11-29T13:16:03.645Z,5.00
2022-11-29T13:18:39.061Z,5.10
2022-11-29T13:21:14.190Z,5.00
2022-11-29T13:26:41.214Z,5.10
2022-11-29T13:29:16.526Z,5.10
2022-11-29T13:31:48.372Z,4.90
2022-11-29T13:34:23.777Z,5.00
2022-11-29T13:37:05.703Z,5.00
2022-11-29T13:39:49.433Z,4.90
2022-11-29T13:42:25.628Z,4.90
2022-11-29T13:45:01.135Z,4.80
2022-11-29T13:47:30.317Z,4.90
2022-11-29T13:50:02.431Z,4.70
2022-11-29T13:52:39.656Z,4.90
2022-11-29T13:55:23.000Z,4.80
2022-11-29T14:00:51.287Z,4.80
2022-11-29T14:03:33.718Z,4.80
2022-11-29T14:06:11.266Z,4.80
2022-11-29T14:09:17.280Z,4.80
2022-11-29T14:11:46.676Z,4.80
2022-11-29T14:14:25.394Z,4.90
2022-11-29T14:16:56.732Z,4.90
2022-11-29T14:19:33.074Z,4.90
2022-11-29T14:22:26.103Z,4.90
2022-11-29T14:25:42.942Z,4.80
2022-11-29T14:28:25.635Z,4.80
2022-11-29T14:30:57.222Z,4.90
2022-11-29T14:33:34.906Z,4.80
2022-11-29T14:36:22.273Z,4.80
2022-11-29T14:38:59.218Z,4.80
2022-11-29T14:41:38.704Z,4.80
2022-11-29T14:44:16.965Z,4.80
2022-11-29T14:46:49.935Z,4.70
2022-11-29T14:49:24.712Z,4.80
2022-11-29T14:52:15.966Z,4.80
2022-11-29T14:54:56.039Z,4.80
2022-11-29T14:58:05.809Z,4.80
2022-11-29T15:00:53.687Z,4.80
2022-11-29T15:03:30.171Z,4.80
2022-11-29T15:06:01.000Z,4.80
2022-11-29T15:08:36.601Z,4.80
2022-11-29T15:11:13.081Z,4.80
2022-11-29T15:13:52.296Z,4.70
2022-11-29T15:16:35.689Z,4.80
2022-11-29T15:19:31.170Z,4.80
2022-11-29T15:22:09.778Z,4.80
2022-11-29T15:24:55.360Z,4.80
2022-11-29T15:27:25.893Z,4.80
2022-11-29T15:29:54.446Z,4.80
2022-11-29T15:32:29.477Z,4.80
2022-11-29T15:35:01.313Z,4.70
2022-11-29T15:37:44.573Z,4.70
2022-11-29T15:40:15.885Z,4.80
2022-11-29T15:42:50.992Z,4.70
2022-11-29T15:45:28.779Z,4.70
2022-11-29T15:48:10.575Z,4.70
2022-11-29T15:50:44.709Z,4.70
2022-11-29T15:53:20.059Z,4.60
2022-11-29T15:55:51.545Z,4.70
2022-11-29T15:58:20.942Z,4.60
2022-11-29T16:00:51.284Z,4.60
2022-11-29T16:03:25.332Z,4.60
2022-11-29T16:06:03.665Z,4.60
2022-11-29T16:08:38.665Z,4.60
2022-11-29T16:11:07.437Z,4.60
2022-11-29T16:13:39.902Z,4.60
2022-11-29T16:16:11.422Z,4.60
2022-11-29T16:18:41.991Z,4.50
2022-11-29T16:21:26.305Z,4.60
2022-11-29T16:23:55.255Z,4.60
2022-11-29T16:26:28.554Z,4.60
2022-11-29T16:28:57.974Z,4.50
2022-11-29T16:31:33.081Z,4.50
2022-11-29T16:34:09.042Z,4.50
2022-11-29T16:36:38.752Z,4.50
2022-11-29T16:39:17.581Z,4.50
2022-11-29T16:42:03.780Z,4.50
2022-11-29T16:45:10.940Z,4.50
2022-11-29T16:47:52.472Z,4.50
2022-11-29T16:50:22.928Z,4.50
2022-11-29T16:52:56.572Z,4.50
2022-11-29T16:55:25.412Z,4.50
2022-11-29T16:57:54.076Z,4.50
2022-11-29T17:00:32.818Z,4.50
2022-11-29T17:03:01.312Z,4.50
2022-11-29T17:05:29.599Z,4.40
2022-11-29T17:07:59.302Z,4.50
2022-11-29T17:10:28.762Z,4.50
2022-11-29T17:12:57.023Z,4.50
2022-11-29T17:15:25.265Z,4.40
2022-11-29T17:17:53.478Z,4.40
2022-11-29T17:20:21.584Z,4.40
2022-11-29T17:22:50.286Z,4.50
2022-11-29T17:25:19.943Z,4.50
2022-11-29T17:27:48.882Z,4.50
2022-11-29T17:30:17.720Z,4.50
2022-11-29T17:32:45.866Z,4.50
2022-11-29T17:35:14.517Z,4.50
2022-11-29T17:37:42.867Z,4.50
2022-11-29T17:40:14.001Z,4.50
2022-11-29T17:42:43.915Z,4.50
2022-11-29T17:45:12.507Z,4.50
2022-11-29T17:47:40.617Z,4.50
2022-11-29T17:50:09.576Z,4.50
2022-11-29T17:52:39.693Z,4.60
2022-11-29T17:55:09.328Z,4.50
2022-11-29T17:57:37.832Z,4.50
2022-11-29T18:00:13.270Z,4.50
2022-11-29T18:02:41.560Z,4.50
2022-11-29T18:05:10.864Z,4.50
2022-11-29T18:07:57.878Z,4.50
2022-11-29T18:10:27.653Z,4.50
2022-11-29T18:12:56.036Z,4.50
2022-11-29T18:15:25.789Z,4.60
2022-11-29T18:17:53.968Z,4.50
2022-11-29T18:20:22.714Z,4.50
2022-11-29T18:22:50.835Z,4.60
2022-11-29T18:25:38.227Z,4.60
2022-11-29T18:28:11.175Z,4.60
2022-11-29T18:30:40.894Z,4.70
2022-11-29T18:33:09.222Z,4.60
2022-11-29T18:35:37.497Z,4.60
2022-11-29T18:38:20.932Z,4.70
2022-11-29T18:40:49.224Z,4.60
2022-11-29T18:43:17.908Z,4.70
2022-11-29T18:45:47.584Z,4.60
2022-11-29T18:48:15.790Z,4.60
2022-11-29T18:50:44.043Z,4.60
2022-11-29T18:53:13.576Z,4.60
2022-11-29T18:55:41.888Z,4.60
2022-11-29T18:58:10.067Z,4.60
2022-11-29T19:00:38.976Z,4.60
2022-11-29T19:03:09.766Z,4.60
2022-11-29T19:05:40.290Z,4.60
2022-11-29T19:08:08.386Z,4.60
2022-11-29T19:10:38.784Z,4.60
2022-11-29T19:13:07.332Z,4.60
2022-11-29T19:15:35.814Z,4.60
2022-11-29T19:18:04.081Z,4.60
2022-11-29T19:20:35.432Z,4.60
2022-11-29T19:23:04.183Z,4.50
2022-11-29T19:25:38.241Z,4.60
2022-11-29T19:28:13.925Z,4.60
2022-11-29T19:30:43.469Z,4.50
2022-11-29T19:33:14.113Z,4.60
2022-11-29T19:35:43.700Z,4.60
2022-11-29T19:38:12.098Z,4.60
2022-11-29T19:40:42.907Z,4.60
2022-11-29T19:43:11.149Z,4.60
2022-11-29T19:45:40.497Z,4.60
2022-11-29T19:48:09.473Z,4.60
2022-11-29T19:50:37.605Z,4.60
2022-11-29T19:53:07.228Z,4.60
2022-11-29T19:55:43.676Z,4.60
2022-11-29T19:58:12.350Z,4.60
2022-11-29T20:00:40.756Z,4.60
2022-11-29T20:03:08.982Z,4.60
2022-11-29T20:05:37.137Z,4.60
2022-11-29T20:08:07.565Z,4.60
2022-11-29T20:10:36.038Z,4.70
2022-11-29T20:13:04.562Z,4.60
2022-11-29T20:15:32.803Z,4.60
2022-11-29T20:18:02.222Z,4.60
2022-11-29T20:20:31.430Z,4.60
2022-11-29T20:23:01.204Z,4.60
2022-11-29T20:25:32.060Z,4.60
2022-11-29T20:28:00.402Z,4.50
2022-11-29T20:30:28.592Z,4.60
2022-11-29T20:32:56.989Z,4.60
2022-11-29T20:35:25.628Z,4.50
2022-11-29T20:38:11.402Z,4.60
2022-11-29T20:40:52.820Z,4.60
2022-11-29T20:43:24.824Z,4.50
2022-11-29T20:45:53.822Z,4.50
2022-11-29T20:48:24.033Z,4.40
2022-11-29T20:50:58.369Z,4.50
2022-11-29T20:53:33.240Z,4.40
2022-11-29T20:56:03.310Z,4.40
2022-11-29T20:58:34.140Z,4.40
2022-11-29T21:01:02.862Z,4.50
2022-11-29T21:03:31.499Z,4.50
2022-11-29T21:06:02.789Z,4.50
2022-11-29T21:08:31.441Z,4.40
2022-11-29T21:11:05.516Z,4.40
2022-11-29T21:13:34.990Z,4.40
2022-11-29T21:16:04.916Z,4.40
2022-11-29T21:18:35.111Z,4.40
2022-11-29T21:21:17.498Z,4.40
2022-11-29T21:23:57.248Z,4.40
2022-11-29T21:26:30.137Z,4.40
2022-11-29T21:29:15.446Z,4.30
2022-11-29T21:31:44.566Z,4.30
2022-11-29T21:34:13.545Z,4.30
2022-11-29T21:36:42.241Z,4.40
2022-11-29T21:39:16.795Z,4.30
2022-11-29T21:42:06.727Z,4.30
2022-11-29T21:44:35.310Z,4.30
2022-11-29T21:47:03.466Z,4.30
2022-11-29T21:49:32.220Z,4.30
2022-11-29T21:52:01.131Z,4.20
2022-11-29T21:54:29.958Z,4.30
2022-11-29T21:56:58.353Z,4.40
2022-11-29T21:59:28.176Z,4.30
2022-11-29T22:01:56.668Z,4.30
2022-11-29T22:04:25.115Z,4.30
2022-11-29T22:06:53.380Z,4.30
2022-11-29T22:09:21.712Z,4.30
2022-11-29T22:11:50.064Z,4.30
2022-11-29T22:14:19.123Z,4.20
2022-11-29T22:16:50.545Z,4.20
2022-11-29T22:19:20.814Z,4.20
2022-11-29T22:21:50.647Z,4.20
2022-11-29T22:24:21.031Z,4.20
2022-11-29T22:26:50.107Z,4.30
2022-11-29T22:29:19.354Z,4.30
2022-11-29T22:31:51.302Z,4.30
2022-11-29T22:34:19.586Z,4.30
2022-11-29T22:36:48.327Z,4.20
2022-11-29T22:39:16.634Z,4.30
2022-11-29T22:41:52.302Z,4.20
2022-11-29T22:44:22.500Z,4.20
2022-11-29T22:46:52.380Z,4.20
2022-11-29T22:49:20.990Z,4.20
2022-11-29T22:51:49.724Z,4.20
2022-11-29T22:54:17.980Z,4.20
2022-11-29T22:56:47.151Z,4.20
2022-11-29T22:59:15.671Z,4.20
2022-11-29T23:01:44.703Z,4.20
2022-11-29T23:04:14.349Z,4.20
2022-11-29T23:06:43.709Z,4.20
2022-11-29T23:09:15.903Z,4.20
2022-11-29T23:11:45.208Z,4.20
2022-11-29T23:14:13.922Z,4.20
2022-11-29T23:16:43.519Z,4.20
2022-11-29T23:19:13.133Z,4.20
2022-11-29T23:21:45.779Z,4.10
2022-11-29T23:24:14.350Z,4.10
2022-11-29T23:26:44.845Z,4.10
2022-11-29T23:29:15.548Z,4.10
2022-11-29T23:31:44.454Z,4.20
2022-11-29T23:34:13.995Z,4.20
2022-11-29T23:36:43.956Z,4.10
2022-11-29T23:39:13.895Z,4.10
2022-11-29T23:41:41.967Z,4.10
2022-11-29T23:44:11.421Z,4.10
2022-11-29T23:46:40.040Z,4.10
2022-11-29T23:49:08.187Z,4.10
2022-11-29T23:51:37.853Z,4.10
2022-11-29T23:54:06.188Z,4.10
2022-11-29T23:56:35.477Z,4.10
2022-11-29T23:59:04.242Z,4.10
